Time;durP1;ratioP1;P1;durP2;ratioP2;P2;SDS_P1;SDS_P2;PMS_P1;PMS_P2;Temp;Humidity;BMP_temperature;BMP_pressure;BME280_temperature;BME280_humidity;BME280_pressure;Samples;Min_cycle;Max_cycle;Signal;HPM_P1;HPM_P2
2021/08/04 00:01:11;;;;;;;5.20;3.35;;;;;;;15.73;79.25;98662.66;3590181;40;20357;-66
2021/08/04 00:03:39;;;;;;;3.55;3.25;;;;;;;15.76;79.05;98667.53;3589175;40;20329;-66
2021/08/04 00:06:07;;;;;;;5.30;4.15;;;;;;;15.82;78.94;98666.59;3589145;40;20040;-66
2021/08/04 00:08:34;;;;;;;5.07;3.38;;;;;;;15.87;79.31;98670.44;3588810;40;20036;-66
2021/08/04 00:11:04;;;;;;;3.67;3.33;;;;;;;15.88;79.22;98658.72;3589448;40;20052;-66
2021/08/04 00:13:32;;;;;;;3.80;3.15;;;;;;;15.95;79.16;98667.41;3589464;40;20082;-66
2021/08/04 00:15:59;;;;;;;4.45;4.05;;;;;;;15.95;78.96;98656.75;3589092;40;20075;-66
2021/08/04 00:18:27;;;;;;;4.28;3.40;;;;;;;15.98;78.72;98664.31;3588773;40;20051;-66
2021/08/04 00:20:55;;;;;;;7.03;4.07;;;;;;;15.99;78.60;98658.72;3588988;40;20084;-66
2021/08/04 00:23:23;;;;;;;4.22;3.35;;;;;;;16.00;78.95;98665.72;3589471;40;20333;-67
2021/08/04 00:25:51;;;;;;;7.35;4.53;;;;;;;16.05;78.60;98662.34;3589935;40;20051;-66
2021/08/04 00:28:20;;;;;;;7.15;4.15;;;;;;;16.07;78.50;98665.56;3589972;40;20050;-67
2021/08/04 00:30:48;;;;;;;5.20;3.70;;;;;;;16.07;78.64;98660.25;3590451;40;20059;-66
2021/08/04 00:33:16;;;;;;;4.80;3.80;;;;;;;16.05;78.33;98659.69;3589620;40;20123;-66
2021/08/04 00:35:43;;;;;;;6.03;3.95;;;;;;;16.02;78.47;98658.28;3589961;40;20102;-66
2021/08/04 00:38:12;;;;;;;3.88;3.45;;;;;;;15.99;78.27;98661.41;3589550;40;20049;-66
2021/08/04 00:40:42;;;;;;;4.00;3.60;;;;;;;15.98;78.21;98658.97;3588996;40;20048;-66
2021/08/04 00:43:10;;;;;;;6.03;3.83;;;;;;;16.00;78.31;98659.53;3589264;40;20059;-67
2021/08/04 00:45:40;;;;;;;4.40;3.90;;;;;;;15.97;78.38;98658.16;3588990;40;20310;-66
2021/08/04 00:48:08;;;;;;;4.38;3.97;;;;;;;15.96;78.39;98656.53;3620082;22;20045;-68
2021/08/04 00:50:37;;;;;;;3.78;3.38;;;;;;;15.92;78.39;98654.53;3578493;40;20056;-68
2021/08/04 00:53:19;;;;;;;7.75;4.03;;;;;;;15.92;78.72;98654.53;3577318;40;20063;-68
2021/08/04 00:55:47;;;;;;;4.70;4.15;;;;;;;15.87;78.45;98659.75;3577395;40;20049;-68
2021/08/04 00:58:16;;;;;;;8.10;4.25;;;;;;;15.86;78.92;98656.28;3577156;40;20061;-68
2021/08/04 01:00:51;;;;;;;4.18;3.78;;;;;;;15.82;78.74;98658.59;3578221;40;20432;-69
2021/08/04 01:03:20;;;;;;;9.02;4.40;;;;;;;15.77;79.20;98657.69;3577466;40;20061;-68
2021/08/04 01:05:55;;;;;;;4.63;3.47;;;;;;;15.78;78.88;98654.78;3577343;40;20056;-68
2021/08/04 01:08:28;;;;;;;8.38;4.13;;;;;;;15.77;78.81;98647.81;3576908;40;20044;-68
2021/08/04 01:10:58;;;;;;;4.60;4.20;;;;;;;15.76;78.74;98638.22;3577574;40;20096;-68
2021/08/04 01:13:29;;;;;;;9.90;5.18;;;;;;;15.72;78.87;98639.72;3577226;40;20576;-68
2021/08/04 01:16:04;;;;;;;7.63;4.80;;;;;;;15.72;79.21;98639.72;3577217;40;20334;-68
2021/08/04 01:18:38;;;;;;;5.35;4.43;;;;;;;15.74;78.76;98644.81;3576905;40;20041;-68
2021/08/04 01:21:09;;;;;;;5.82;4.45;;;;;;;15.70;79.05;98641.78;3577079;40;20049;-68
2021/08/04 01:23:43;;;;;;;5.45;4.32;;;;;;;15.70;78.98;98643.63;3577147;40;20069;-68
2021/08/04 01:26:12;;;;;;;;;;;;;;;15.64;79.16;98645.34;3578696;40;20060;-68
2021/08/04 01:28:46;;;;;;;5.28;4.55;;;;;;;15.59;78.89;98647.88;3578187;40;19935;-68
2021/08/04 01:31:17;;;;;;;5.25;4.57;;;;;;;15.60;79.28;98646.84;3579517;40;20088;-68
2021/08/04 01:33:49;;;;;;;5.63;5.13;;;;;;;15.68;79.31;98659.06;3580723;40;20086;-68
2021/08/04 01:36:17;;;;;;;5.22;4.70;;;;;;;15.67;79.47;98655.56;3580430;40;20053;-69
2021/08/04 01:38:46;;;;;;;6.95;4.97;;;;;;;15.66;78.98;98653.94;3578524;40;20056;-68
2021/08/04 01:41:16;;;;;;;7.00;4.63;;;;;;;15.66;79.01;98655.78;3577175;40;20287;-68
2021/08/04 01:43:46;;;;;;;7.18;4.57;;;;;;;15.70;79.05;98654.28;3577948;40;20053;-68
2021/08/04 01:46:15;;;;;;;6.50;5.00;;;;;;;15.71;78.79;98659.38;3577141;40;20076;-68
2021/08/04 01:48:45;;;;;;;5.57;5.00;;;;;;;15.74;79.00;98658.13;3577470;40;20049;-68
2021/08/04 01:51:14;;;;;;;8.38;5.18;;;;;;;15.73;79.01;98661.84;3576962;40;20045;-68
2021/08/04 01:53:44;;;;;;;7.57;5.30;;;;;;;15.73;78.77;98657.31;3576922;40;20400;-68
2021/08/04 01:56:14;;;;;;;8.38;5.72;;;;;;;15.76;79.08;98653.41;3577180;40;20065;-68
2021/08/04 01:58:43;;;;;;;6.47;4.90;;;;;;;15.76;78.30;98651.53;3578579;40;20337;-68
2021/08/04 02:01:12;;;;;;;5.57;5.07;;;;;;;15.76;78.82;98651.53;3578715;40;20060;-68
2021/08/04 02:03:40;;;;;;;8.60;5.57;;;;;;;15.73;78.35;98646.66;3578561;40;20398;-68
2021/08/04 02:06:15;;;;;;;6.25;5.30;;;;;;;15.74;78.48;98658.94;3579227;40;20056;-68
2021/08/04 02:08:53;;;;;;;5.70;5.18;;;;;;;15.74;78.68;98664.25;3582334;40;20056;-68
2021/08/04 02:11:25;;;;;;;6.78;5.22;;;;;;;15.72;78.67;98652.22;3583439;40;20049;-68
2021/08/04 02:13:58;;;;;;;5.65;4.90;;;;;;;15.69;78.63;98650.00;3584073;40;20318;-68
2021/08/04 02:16:28;;;;;;;;;;;;;;;15.68;78.72;98651.06;3583318;40;20071;-68
2021/08/04 02:19:07;;;;;;;8.18;5.53;;;;;;;15.69;78.54;98644.69;3581639;40;20018;-68
2021/08/04 02:21:38;;;;;;;5.50;4.63;;;;;;;15.70;78.69;98649.78;3582293;40;20044;-68
2021/08/04 02:24:06;;;;;;;6.72;5.70;;;;;;;15.69;78.25;98653.50;3581336;40;20044;-68
2021/08/04 02:26:37;;;;;;;8.38;5.13;;;;;;;15.68;78.61;98648.41;3581719;40;20129;-68
2021/08/04 02:29:06;;;;;;;8.45;5.22;;;;;;;15.69;78.74;98647.34;3581182;40;20055;-68
2021/08/04 02:31:36;;;;;;;8.32;5.53;;;;;;;15.69;78.87;98650.81;3580063;40;20084;-68
2021/08/04 02:34:04;;;;;;;6.68;5.68;;;;;;;15.73;78.65;98641.34;3581080;40;20049;-68
2021/08/04 02:36:32;;;;;;;7.45;5.88;;;;;;;15.71;78.38;98647.91;3580298;40;20059;-68
2021/08/04 02:39:02;;;;;;;7.63;6.05;;;;;;;15.70;78.69;98644.44;3580998;40;20053;-67
2021/08/04 02:41:32;;;;;;;8.75;6.25;;;;;;;15.69;78.44;98642.84;3579607;40;20088;-68
2021/08/04 02:44:01;;;;;;;9.85;6.13;;;;;;;15.65;78.21;98636.34;3579950;40;20049;-68
2021/08/04 02:46:30;;;;;;;7.68;6.03;;;;;;;15.65;78.31;98640.84;3580871;40;20052;-68
2021/08/04 02:49:00;;;;;;;13.07;5.60;;;;;;;15.67;78.65;98636.09;3579796;40;20052;-68
2021/08/04 02:51:29;;;;;;;8.93;5.85;;;;;;;15.65;78.33;98643.53;3579741;40;20117;-68
2021/08/04 02:53:58;;;;;;;6.47;5.57;;;;;;;15.67;78.65;98642.22;3581051;40;20045;-68
2021/08/04 02:56:26;;;;;;;7.00;5.45;;;;;;;15.68;78.53;98645.72;3581597;40;20089;-68
2021/08/04 02:58:54;;;;;;;9.50;5.47;;;;;;;15.66;78.86;98643.28;3581032;40;20056;-68
2021/08/04 03:01:22;;;;;;;7.70;6.07;;;;;;;15.68;78.55;98641.22;3582544;40;20084;-68
2021/08/04 03:03:50;;;;;;;7.55;6.28;;;;;;;15.68;78.79;98640.41;3581458;40;20060;-68
2021/08/04 03:06:19;;;;;;;8.73;5.95;;;;;;;15.70;78.60;98638.31;3581029;40;20406;-67
2021/08/04 03:08:47;;;;;;;6.78;6.05;;;;;;;15.70;78.54;98639.13;3581708;40;20048;-68
2021/08/04 03:11:15;;;;;;;7.43;6.03;;;;;;;15.67;78.39;98633.44;3580936;40;20057;-67
2021/08/04 03:13:42;;;;;;;7.57;6.15;;;;;;;15.69;78.61;98642.84;3581127;40;20426;-68
2021/08/04 03:16:10;;;;;;;10.02;5.97;;;;;;;15.68;78.48;98643.88;3580664;40;20110;-68
2021/08/04 03:18:38;;;;;;;10.30;6.10;;;;;;;15.72;78.24;98645.03;3582061;40;20049;-67
2021/08/04 03:21:06;;;;;;;8.02;6.30;;;;;;;15.72;78.41;98639.72;3582651;40;20049;-68
2021/08/04 03:23:35;;;;;;;7.93;5.78;;;;;;;15.72;78.18;98647.72;3581364;40;20056;-66
2021/08/04 03:26:03;;;;;;;8.73;6.03;;;;;;;15.74;77.91;98637.63;3579178;40;20041;-66
2021/08/04 03:28:31;;;;;;;8.82;6.50;;;;;;;15.77;78.31;98641.69;3577816;40;20045;-66
2021/08/04 03:30:58;;;;;;;7.75;7.03;;;;;;;15.75;78.26;98636.56;3579027;40;20051;-67
2021/08/04 03:33:26;;;;;;;7.85;7.07;;;;;;;15.77;78.21;98641.69;3579187;40;20399;-67
2021/08/04 03:35:54;;;;;;;9.18;6.72;;;;;;;15.71;77.85;98643.41;3582487;40;20055;-67
2021/08/04 03:38:22;;;;;;;8.68;7.03;;;;;;;15.74;78.14;98637.63;3581665;40;20052;-67
2021/08/04 03:40:51;;;;;;;7.70;6.32;;;;;;;15.76;78.20;98642.72;3582274;40;20081;-68
2021/08/04 03:43:19;;;;;;;8.05;6.95;;;;;;;15.80;77.78;98641.22;3582028;40;20056;-68
2021/08/04 03:45:46;;;;;;;8.35;7.03;;;;;;;15.75;77.76;98649.09;3581785;40;20101;-67
2021/08/04 03:48:14;;;;;;;7.72;6.53;;;;;;;15.75;78.01;98644.56;3580274;40;20047;-67
2021/08/04 03:50:42;;;;;;;7.88;7.10;;;;;;;15.79;77.63;98644.91;3579986;40;20028;-66
2021/08/04 03:53:10;;;;;;;7.55;6.60;;;;;;;15.81;77.82;98643.66;3578827;40;20029;-67
2021/08/04 03:55:37;;;;;;;9.52;7.10;;;;;;;15.82;77.32;98642.59;3578506;40;20092;-67
2021/08/04 03:58:06;;;;;;;7.35;6.45;;;;;;;15.79;77.16;98640.41;3578108;40;20418;-67
2021/08/04 04:00:34;;;;;;;9.18;7.03;;;;;;;15.81;77.23;98643.66;3578930;40;20035;-66
2021/08/04 04:03:02;;;;;;;8.50;6.93;;;;;;;15.82;77.19;98647.94;3578126;40;20110;-66
2021/08/04 04:05:30;;;;;;;8.57;6.88;;;;;;;15.82;77.23;98644.47;3578771;40;20134;-67
2021/08/04 04:07:58;;;;;;;7.90;6.32;;;;;;;15.87;76.75;98655.25;3578973;40;20287;-66
2021/08/04 04:10:26;;;;;;;8.15;6.95;;;;;;;15.83;77.06;98656.75;3578407;40;20035;-66
2021/08/04 04:12:53;;;;;;;10.88;7.45;;;;;;;15.81;77.01;98664.16;3578647;40;20033;-67
2021/08/04 04:15:23;;;;;;;8.75;6.50;;;;;;;15.83;77.16;98662.06;3578589;40;20025;-67
2021/08/04 04:17:50;;;;;;;8.07;6.28;;;;;;;15.84;76.82;98659.19;3577849;40;20363;-66
2021/08/04 04:20:18;;;;;;;8.40;6.40;;;;;;;15.82;77.19;98661.25;3578533;40;20032;-66
2021/08/04 04:22:46;;;;;;;7.32;6.65;;;;;;;15.81;77.04;98662.31;3578817;40;20318;-67
2021/08/04 04:25:15;;;;;;;6.80;6.00;;;;;;;15.83;76.85;98662.06;3578630;40;20057;-67
2021/08/04 04:27:52;;;;;;;9.38;6.78;;;;;;;15.86;76.97;98661.63;3578698;40;20441;-66
2021/08/04 04:30:20;;;;;;;9.65;7.78;;;;;;;15.84;76.98;98659.19;3578389;40;20114;-66
2021/08/04 04:32:49;;;;;;;9.05;6.13;;;;;;;15.81;76.78;98664.97;3578360;40;20052;-66
2021/08/04 04:35:16;;;;;;;7.03;6.28;;;;;;;15.80;76.40;98668.69;3578377;40;20394;-67
2021/08/04 04:37:44;;;;;;;7.30;6.60;;;;;;;15.85;76.72;98668.81;3579284;40;20077;-66
2021/08/04 04:40:12;;;;;;;7.25;6.55;;;;;;;15.85;76.44;98666.16;3578442;40;20047;-66
2021/08/04 04:42:40;;;;;;;8.32;6.18;;;;;;;15.88;76.07;98666.72;3579422;40;20401;-68
2021/08/04 04:45:09;;;;;;;9.25;6.60;;;;;;;15.89;76.25;98666.50;3579895;40;20405;-68
2021/08/04 04:47:37;;;;;;;7.07;6.20;;;;;;;15.92;76.47;98665.22;3579462;40;20041;-67
2021/08/04 04:50:07;;;;;;;6.97;6.30;;;;;;;15.95;76.49;98665.56;3579603;40;20394;-67
2021/08/04 04:52:42;;;;;;;7.95;6.55;;;;;;;16.00;76.38;98670.19;3579826;40;20328;-67
2021/08/04 04:55:12;;;;;;;7.35;6.22;;;;;;;15.98;75.70;98661.63;3579026;40;20052;-69
2021/08/04 04:57:40;;;;;;;7.75;6.70;;;;;;;15.94;76.33;98668.47;3578434;40;20399;-68
2021/08/04 05:00:09;;;;;;;10.55;6.20;;;;;;;15.96;75.84;98679.69;3579369;40;20074;-68
2021/08/04 05:02:38;;;;;;;8.10;6.22;;;;;;;16.01;76.17;98670.00;3579715;40;20080;-69
2021/08/04 05:05:10;;;;;;;7.65;6.72;;;;;;;16.04;76.01;98671.38;3579102;40;20045;-69
2021/08/04 05:07:37;;;;;;;8.70;7.10;;;;;;;16.06;76.12;98667.44;3579341;40;20051;-68
2021/08/04 05:10:06;;;;;;;7.63;6.82;;;;;;;16.12;75.86;98664.88;3578789;40;20057;-68
2021/08/04 05:12:34;;;;;;;7.30;6.60;;;;;;;16.18;75.35;98667.44;3579439;40;20045;-68
2021/08/04 05:15:01;;;;;;;9.35;6.22;;;;;;;16.28;75.70;98669.50;3578411;40;20083;-69
2021/08/04 05:17:29;;;;;;;7.18;6.38;;;;;;;16.34;75.52;98664.06;3579623;40;20053;-69
2021/08/04 05:19:57;;;;;;;8.18;6.68;;;;;;;16.38;74.85;98669.75;3579143;40;20391;-69
2021/08/04 05:22:26;;;;;;;7.00;6.30;;;;;;;16.44;75.09;98676.00;3578932;40;20049;-68
2021/08/04 05:24:54;;;;;;;7.65;6.88;;;;;;;16.47;74.61;98680.88;3579335;40;20077;-69
2021/08/04 05:27:22;;;;;;;7.85;6.93;;;;;;;16.48;74.47;98667.28;3578090;40;20300;-68
2021/08/04 05:29:50;;;;;;;7.00;6.30;;;;;;;16.47;75.04;98665.69;3578654;40;20041;-68
2021/08/04 05:32:17;;;;;;;8.43;6.80;;;;;;;16.46;74.91;98672.06;3579723;40;20045;-69
2021/08/04 05:34:45;;;;;;;8.52;6.18;;;;;;;16.41;75.04;98676.47;3580883;40;20053;-68
2021/08/04 05:37:13;;;;;;;9.60;7.25;;;;;;;16.43;75.09;98675.19;3579804;40;20048;-68
2021/08/04 05:39:42;;;;;;;7.07;6.38;;;;;;;16.39;74.95;98675.91;3579625;40;20110;-66
2021/08/04 05:42:11;;;;;;;9.88;6.40;;;;;;;16.41;74.60;98674.63;3580617;40;20045;-69
2021/08/04 05:44:40;;;;;;;12.40;7.07;;;;;;;16.39;74.81;98668.72;3579656;40;20049;-69
2021/08/04 05:47:08;;;;;;;9.43;6.45;;;;;;;16.30;74.82;98662.91;3579630;40;20044;-68
2021/08/04 05:49:36;;;;;;;6.90;6.18;;;;;;;16.20;75.09;98668.00;3580658;40;20367;-69
2021/08/04 05:52:04;;;;;;;8.93;7.07;;;;;;;16.17;74.79;98673.81;3579805;40;20045;-69
2021/08/04 05:54:32;;;;;;;9.00;6.68;;;;;;;16.18;74.80;98671.97;3580626;40;20045;-69
2021/08/04 05:57:01;;;;;;;8.90;6.75;;;;;;;16.14;75.11;98676.13;3578559;40;20060;-67
2021/08/04 05:59:29;;;;;;;7.05;6.38;;;;;;;16.14;75.15;98676.13;3578279;40;20041;-68
2021/08/04 06:01:56;;;;;;;7.72;6.28;;;;;;;16.10;75.38;98673.94;3579788;40;20060;-68
2021/08/04 06:04:24;;;;;;;6.68;5.80;;;;;;;16.09;75.04;98680.31;3579623;40;20474;-68
2021/08/04 06:06:52;;;;;;;7.32;6.18;;;;;;;16.13;75.14;98677.19;3579950;40;20366;-68
2021/08/04 06:09:20;;;;;;;8.77;7.85;;;;;;;16.13;74.98;98688.66;3577951;40;20110;-68
2021/08/04 06:11:48;;;;;;;7.28;6.13;;;;;;;16.20;74.82;98686.69;3578629;40;20410;-68
2021/08/04 06:14:17;;;;;;;7.40;6.15;;;;;;;16.19;74.39;98682.38;3578412;40;20045;-67
2021/08/04 06:16:45;;;;;;;7.55;5.47;;;;;;;16.21;74.69;98688.31;3578521;40;20044;-68
2021/08/04 06:19:12;;;;;;;7.18;5.78;;;;;;;16.19;74.37;98684.25;3579574;40;20084;-68
2021/08/04 06:21:40;;;;;;;7.25;5.85;;;;;;;16.24;74.72;98682.50;3578821;40;20045;-69
2021/08/04 06:24:08;;;;;;;10.63;6.25;;;;;;;16.21;74.77;98692.84;3578511;40;20047;-68
2021/08/04 06:26:36;;;;;;;7.93;6.07;;;;;;;16.19;74.42;98684.25;3578294;40;20359;-68
2021/08/04 06:29:04;;;;;;;7.10;6.40;;;;;;;16.23;74.81;98680.06;3579225;40;20072;-68
2021/08/04 06:31:34;;;;;;;6.88;5.88;;;;;;;16.24;74.39;98681.69;3578757;40;20051;-68
2021/08/04 06:34:02;;;;;;;9.85;6.57;;;;;;;16.23;74.22;98680.06;3580249;40;20048;-68
2021/08/04 06:36:30;;;;;;;8.15;6.15;;;;;;;16.23;74.22;98691.56;3580489;40;20041;-67
2021/08/04 06:38:58;;;;;;;10.45;6.93;;;;;;;16.21;74.40;98690.19;3580125;40;20045;-68
2021/08/04 06:41:25;;;;;;;11.52;6.38;;;;;;;16.20;74.35;98692.00;3580316;40;20061;-68
2021/08/04 06:43:53;;;;;;;10.50;7.03;;;;;;;16.16;74.56;98690.03;3580333;40;20049;-68
2021/08/04 06:46:21;;;;;;;8.50;6.93;;;;;;;16.13;74.59;98698.53;3580307;40;20130;-68
2021/08/04 06:48:51;;;;;;;7.97;6.68;;;;;;;16.10;74.38;98700.59;3618632;22;20092;-64
2021/08/04 06:51:19;;;;;;;9.48;7.03;;;;;;;16.14;74.30;98692.13;3591633;40;20044;-64
2021/08/04 06:53:50;;;;;;;8.55;6.72;;;;;;;16.20;74.10;98701.88;3593926;40;20084;-64
2021/08/04 06:56:19;;;;;;;8.13;6.40;;;;;;;16.22;74.35;98697.94;3593207;40;20059;-65
2021/08/04 06:58:47;;;;;;;8.55;6.80;;;;;;;16.32;74.48;98706.16;3589436;40;20056;-65
2021/08/04 07:01:15;;;;;;;7.15;6.45;;;;;;;16.39;74.23;98703.38;3590054;40;20058;-65
2021/08/04 07:03:43;;;;;;;10.20;6.20;;;;;;;16.45;73.66;98699.81;3592125;40;20129;-66
2021/08/04 07:06:13;;;;;;;8.80;6.30;;;;;;;16.52;73.66;98697.81;3591244;40;20333;-66
2021/08/04 07:08:41;;;;;;;7.65;6.20;;;;;;;16.58;73.89;98704.91;3591812;40;20404;-66
2021/08/04 07:11:09;;;;;;;6.15;5.50;;;;;;;16.60;73.21;98702.78;3589712;40;20048;-65
2021/08/04 07:13:37;;;;;;;6.82;5.72;;;;;;;16.57;72.90;98703.28;3588717;40;20040;-66
2021/08/04 07:16:05;;;;;;;14.90;6.55;;;;;;;16.62;72.87;98702.56;3589485;40;20093;-66
2021/08/04 07:18:33;;;;;;;6.78;6.05;;;;;;;16.66;72.74;98706.41;3588068;40;20394;-65
2021/08/04 07:21:00;;;;;;;7.28;6.38;;;;;;;16.76;72.51;98698.63;3589213;40;20082;-65
2021/08/04 07:23:30;;;;;;;7.57;5.85;;;;;;;16.86;72.48;98705.22;3588048;40;20052;-66
2021/08/04 07:25:58;;;;;;;11.93;9.50;;;;;;;16.95;72.24;98704.63;3588211;40;20051;-66
2021/08/04 07:28:26;;;;;;;9.32;5.63;;;;;;;16.95;71.54;98715.31;3587779;40;20429;-65
2021/08/04 07:30:54;;;;;;;6.97;5.22;;;;;;;16.99;71.65;98713.78;3587964;40;20044;-65
2021/08/04 07:33:22;;;;;;;5.30;4.80;;;;;;;17.03;71.27;98722.16;3588070;40;20070;-65
2021/08/04 07:35:49;;;;;;;5.45;4.95;;;;;;;17.03;71.35;98716.81;3588922;40;20056;-65
2021/08/04 07:38:17;;;;;;;5.60;4.60;;;;;;;16.91;71.04;98713.34;3587418;40;20056;-66
2021/08/04 07:40:46;;;;;;;5.85;5.28;;;;;;;16.96;71.07;98716.91;3588988;40;20401;-66
2021/08/04 07:43:14;;;;;;;6.93;4.60;;;;;;;17.07;71.05;98710.75;3588869;40;20420;-66
2021/08/04 07:45:42;;;;;;;6.07;5.10;;;;;;;17.10;70.59;98714.78;3588930;40;20084;-66
2021/08/04 07:48:10;;;;;;;5.47;4.88;;;;;;;17.14;70.72;98715.13;3588465;40;20438;-66
2021/08/04 07:50:38;;;;;;;7.15;6.00;;;;;;;17.15;70.50;98714.91;3587750;40;20059;-66
2021/08/04 07:53:06;;;;;;;6.93;5.93;;;;;;;17.17;70.40;98722.66;3588811;40;20045;-66
2021/08/04 07:55:34;;;;;;;8.35;7.40;;;;;;;17.22;70.35;98723.56;3588456;40;20096;-66
2021/08/04 07:58:03;;;;;;;5.22;4.70;;;;;;;17.34;70.05;98718.19;3588887;40;20100;-66
2021/08/04 08:00:31;;;;;;;5.78;4.60;;;;;;;17.38;69.60;98714.00;3590048;40;20080;-66
2021/08/04 08:03:01;;;;;;;8.52;4.45;;;;;;;17.34;69.05;98710.19;3590530;40;20044;-66
2021/08/04 08:05:29;;;;;;;6.68;4.15;;;;;;;17.47;68.67;98706.41;3592185;40;20322;-66
2021/08/04 08:08:03;;;;;;;4.60;4.20;;;;;;;17.67;68.09;98696.06;3591355;40;20044;-66
2021/08/04 08:10:31;;;;;;;;;;;;;;;17.74;67.45;98702.13;3591828;40;20052;-67
2021/08/04 08:12:59;;;;;;;8.00;4.07;;;;;;;17.76;67.04;98699.22;3590412;40;20309;-68
2021/08/04 08:15:29;;;;;;;5.15;4.03;;;;;;;17.89;66.66;98703.44;3590877;40;20044;-66
2021/08/04 08:17:57;;;;;;;5.07;4.47;;;;;;;17.88;66.46;98691.09;3590789;40;20044;-66
2021/08/04 08:20:27;;;;;;;5.10;4.53;;;;;;;17.91;66.49;98696.78;3589221;40;20052;-67
2021/08/04 08:22:54;;;;;;;4.85;4.35;;;;;;;17.89;66.05;98687.41;3588923;40;20417;-66
2021/08/04 08:25:22;;;;;;;5.80;5.07;;;;;;;17.80;66.21;98687.00;3587753;40;20052;-66
2021/08/04 08:27:50;;;;;;;11.57;6.60;;;;;;;17.81;66.06;98692.09;3588464;40;20055;-66
2021/08/04 08:30:18;;;;;;;9.15;6.53;;;;;;;17.77;65.93;98687.47;3588599;40;20049;-66
2021/08/04 08:32:49;;;;;;;8.07;6.68;;;;;;;17.90;65.41;98680.97;3588636;40;20398;-66
2021/08/04 08:35:18;;;;;;;8.77;6.65;;;;;;;17.97;65.73;98682.44;3587758;40;20075;-66
2021/08/04 08:37:47;;;;;;;9.85;6.75;;;;;;;18.00;65.82;98676.63;3588510;40;20048;-66
2021/08/04 08:40:16;;;;;;;8.10;6.85;;;;;;;18.23;65.46;98672.94;3588343;40;20073;-66
2021/08/04 08:42:45;;;;;;;8.82;6.82;;;;;;;18.48;65.17;98671.69;3588420;40;20071;-66
2021/08/04 08:45:15;;;;;;;9.07;8.25;;;;;;;18.60;63.23;98663.53;3587849;40;20145;-67
2021/08/04 08:47:44;;;;;;;9.40;8.35;;;;;;;18.58;63.72;98673.69;3587914;40;20076;-67
2021/08/04 08:50:25;;;;;;;9.00;7.97;;;;;;;18.60;63.02;98674.25;3588213;40;20052;-66
2021/08/04 08:52:54;;;;;;;10.43;9.35;;;;;;;18.71;62.98;98673.38;3588329;40;20397;-66
2021/08/04 08:55:22;;;;;;;11.35;9.65;;;;;;;18.81;62.61;98671.59;3587319;40;20041;-66
2021/08/04 08:57:50;;;;;;;11.02;9.35;;;;;;;18.81;62.39;98676.16;3587464;40;20330;-67
2021/08/04 09:00:18;;;;;;;11.98;9.88;;;;;;;18.86;62.59;98673.56;3587322;40;20040;-66
2021/08/04 09:02:46;;;;;;;10.80;9.63;;;;;;;18.83;62.16;98682.09;3588825;40;20035;-66
2021/08/04 09:05:16;;;;;;;11.90;10.35;;;;;;;18.86;62.31;98678.91;3588617;40;20031;-67
2021/08/04 09:07:47;;;;;;;9.73;8.70;;;;;;;18.99;62.05;98673.19;3589565;40;20052;-66
2021/08/04 09:10:25;;;;;;;8.48;7.68;;;;;;;19.11;60.43;98672.25;3588767;40;20056;-66
2021/08/04 09:12:55;;;;;;;7.05;6.35;;;;;;;19.14;60.86;98669.84;3589829;40;20033;-66
2021/08/04 09:15:25;;;;;;;7.40;6.70;;;;;;;19.36;60.58;98669.00;3588849;40;20123;-66
2021/08/04 09:18:05;;;;;;;8.32;6.43;;;;;;;19.52;59.67;98670.78;3588541;40;20052;-67
2021/08/04 09:20:43;;;;;;;8.25;6.65;;;;;;;19.86;59.79;98659.84;3589745;40;20053;-66
2021/08/04 09:23:17;;;;;;;7.45;6.68;;;;;;;20.12;58.43;98661.63;3589795;40;20052;-67
2021/08/04 09:26:05;;;;;;;6.53;5.93;;;;;;;20.12;57.75;98658.94;3589723;40;20067;-67
2021/08/04 09:28:53;;;;;;;7.00;6.30;;;;;;;20.27;57.58;98648.31;3588595;40;20045;-68
2021/08/04 09:31:23;;;;;;;8.52;6.30;;;;;;;20.61;57.00;98657.91;3590426;40;20063;-66
2021/08/04 09:33:51;;;;;;;5.40;4.63;;;;;;;20.88;56.58;98650.53;3589523;40;20052;-67
2021/08/04 09:36:27;;;;;;;5.20;4.70;;;;;;;20.98;55.13;98645.19;3589864;40;20040;-65
2021/08/04 09:39:05;;;;;;;5.00;4.57;;;;;;;21.05;55.20;98644.94;3588159;40;20041;-67
2021/08/04 09:41:33;;;;;;;5.47;4.95;;;;;;;21.05;54.69;98646.81;3589012;40;20060;-67
2021/08/04 09:44:04;;;;;;;5.15;4.60;;;;;;;21.00;54.23;98639.53;3589608;40;20053;-66
2021/08/04 09:46:33;;;;;;;5.65;4.93;;;;;;;20.93;54.19;98639.78;3588694;40;20051;-66
2021/08/04 09:49:12;;;;;;;5.60;5.10;;;;;;;20.94;53.94;98636.06;3588534;40;20096;-67
2021/08/04 09:51:40;;;;;;;8.45;6.20;;;;;;;21.00;53.96;98628.78;3590153;40;20047;-67
2021/08/04 09:54:10;;;;;;;5.72;5.22;;;;;;;21.01;54.15;98633.09;3590279;40;20032;-69
2021/08/04 09:56:49;;;;;;;5.53;4.93;;;;;;;21.14;53.84;98621.81;3591060;40;20051;-67
2021/08/04 09:59:17;;;;;;;4.93;4.53;;;;;;;21.14;53.74;98627.22;3590665;40;20289;-66
2021/08/04 10:01:45;;;;;;;6.97;6.28;;;;;;;21.33;53.14;98616.78;3590624;40;20360;-67
2021/08/04 10:04:14;;;;;;;5.57;5.07;;;;;;;21.36;53.13;98616.28;3589845;40;20040;-65
2021/08/04 10:06:44;;;;;;;5.85;5.35;;;;;;;21.15;53.43;98612.72;3590225;40;20065;-65
2021/08/04 10:09:15;;;;;;;6.25;5.03;;;;;;;21.36;53.19;98613.59;3590090;40;20372;-67
2021/08/04 10:11:45;;;;;;;5.55;5.05;;;;;;;21.34;52.17;98614.91;3590882;40;20052;-68
2021/08/04 10:14:15;;;;;;;6.43;5.50;;;;;;;21.39;52.27;98612.22;3590069;40;20416;-65
2021/08/04 10:16:45;;;;;;;6.40;4.85;;;;;;;21.58;52.55;98612.50;3592685;40;20095;-66
2021/08/04 10:19:14;;;;;;;6.65;4.93;;;;;;;21.58;52.69;98617.88;3592192;40;20050;-66
2021/08/04 10:21:47;;;;;;;5.03;4.63;;;;;;;21.60;52.59;98611.19;3592563;40;20064;-66
2021/08/04 10:24:17;;;;;;;5.15;4.75;;;;;;;21.67;52.37;98611.69;3593574;40;20496;-67
2021/08/04 10:26:45;;;;;;;5.35;4.95;;;;;;;21.73;52.10;98609.81;3592495;40;20088;-67
2021/08/04 10:29:13;;;;;;;7.28;5.53;;;;;;;21.91;51.50;98609.25;3593005;40;20469;-67
2021/08/04 10:31:41;;;;;;;4.53;4.13;;;;;;;21.93;51.63;98601.72;3592153;40;20044;-65
2021/08/04 10:34:23;;;;;;;5.15;4.65;;;;;;;22.15;51.19;98601.44;3592417;40;20048;-66
2021/08/04 10:36:52;;;;;;;4.57;4.18;;;;;;;22.20;50.68;98595.25;3591211;40;20053;-66
2021/08/04 10:39:22;;;;;;;4.30;3.90;;;;;;;22.05;51.04;98590.69;3590295;40;20041;-66
2021/08/04 10:42:01;;;;;;;5.00;4.53;;;;;;;21.95;51.62;98585.31;3592126;40;20056;-67
2021/08/04 10:44:29;;;;;;;4.47;4.07;;;;;;;21.90;51.42;98583.44;3592142;40;20145;-66
2021/08/04 10:46:59;;;;;;;4.82;4.30;;;;;;;21.76;51.30;98575.13;3588736;40;20083;-66
2021/08/04 10:49:29;;;;;;;5.07;4.57;;;;;;;21.69;51.48;98582.66;3589165;40;20044;-66
2021/08/04 10:52:16;;;;;;;6.35;5.25;;;;;;;21.70;51.39;98584.25;3589635;40;20056;-66
2021/08/04 10:55:12;;;;;;;5.47;4.97;;;;;;;21.72;49.92;98584.81;3589853;40;20299;-66
2021/08/04 10:58:17;;;;;;;5.80;5.30;;;;;;;21.84;49.09;98581.84;3579461;40;20129;-66
2021/08/04 11:00:46;;;;;;;9.10;5.00;;;;;;;21.82;49.30;98578.59;3588655;40;20051;-65
2021/08/04 11:03:43;;;;;;;4.60;4.25;;;;;;;21.89;49.20;98581.81;3588682;40;20055;-66
2021/08/04 11:06:12;;;;;;;4.55;4.15;;;;;;;21.94;49.13;98570.25;3589492;40;20053;-65
2021/08/04 11:08:40;;;;;;;5.43;4.50;;;;;;;21.74;49.61;98563.81;3589044;40;20336;-65
2021/08/04 11:11:10;;;;;;;4.90;4.38;;;;;;;21.73;49.82;98562.22;3589431;40;20094;-66
2021/08/04 11:13:53;;;;;;;4.20;3.80;;;;;;;21.85;49.77;98563.81;3588363;40;20048;-66
2021/08/04 11:16:30;;;;;;;4.28;3.95;;;;;;;21.89;50.01;98554.91;3588543;40;20053;-65
2021/08/04 11:19:10;;;;;;;4.50;4.13;;;;;;;21.91;49.46;98555.44;3588963;40;20067;-66
2021/08/04 11:21:39;;;;;;;4.18;3.88;;;;;;;21.76;49.39;98558.97;3588214;40;20063;-65
2021/08/04 11:24:07;;;;;;;5.00;4.30;;;;;;;21.73;49.22;98564.09;3588309;40;20130;-65
2021/08/04 11:26:38;;;;;;;4.25;3.85;;;;;;;21.84;49.57;98556.78;3588614;40;20403;-65
2021/08/04 11:29:07;;;;;;;3.78;3.47;;;;;;;21.95;49.57;98555.69;3587737;40;20041;-66
2021/08/04 11:31:35;;;;;;;3.70;2.92;;;;;;;22.05;48.46;98558.38;3588097;40;20048;-66
2021/08/04 11:34:27;;;;;;;2.70;2.50;;;;;;;22.24;48.01;98553.22;3589039;40;20047;-66
2021/08/04 11:36:59;;;;;;;3.80;3.50;;;;;;;22.48;47.72;98558.78;3589362;40;20067;-66
2021/08/04 11:39:27;;;;;;;5.40;3.53;;;;;;;22.36;47.46;98547.53;3589030;40;20044;-66
2021/08/04 11:41:56;;;;;;;3.67;3.38;;;;;;;22.25;47.12;98549.47;3588347;40;20433;-66
2021/08/04 11:44:26;;;;;;;4.50;2.65;;;;;;;22.23;45.73;98552.44;3588398;40;20044;-66
2021/08/04 11:47:02;;;;;;;4.30;3.10;;;;;;;22.24;45.65;98548.66;3589230;40;20047;-66